sensor_id;sensor_type;location;lat;lon;timestamp;temperature;humidity
1678;DHT22;6034;46.864;15.216;2023-12-29T06:02:29;6.30;96.10
1678;DHT22;6034;46.864;15.216;2023-12-29T06:04:57;6.00;96.80
1678;DHT22;6034;46.864;15.216;2023-12-29T06:07:24;5.90;97.50
1678;DHT22;6034;46.864;15.216;2023-12-29T06:09:52;6.10;97.50
1678;DHT22;6034;46.864;15.216;2023-12-29T06:12:19;6.00;97.10
1678;DHT22;6034;46.864;15.216;2023-12-29T06:14:46;6.10;97.00
1678;DHT22;6034;46.864;15.216;2023-12-29T06:17:14;6.10;96.90
1678;DHT22;6034;46.864;15.216;2023-12-29T06:19:43;5.90;97.20
1678;DHT22;6034;46.864;15.216;2023-12-29T06:22:10;5.90;97.30
1678;DHT22;6034;46.864;15.216;2023-12-29T06:24:40;5.90;96.30
1678;DHT22;6034;46.864;15.216;2023-12-29T06:27:08;6.00;95.50
1678;DHT22;6034;46.864;15.216;2023-12-29T06:29:36;6.00;95.10
1678;DHT22;6034;46.864;15.216;2023-12-29T06:32:04;5.80;94.50
1678;DHT22;6034;46.864;15.216;2023-12-29T06:34:31;5.70;94.70
1678;DHT22;6034;46.864;15.216;2023-12-29T06:37:00;5.80;95.40
1678;DHT22;6034;46.864;15.216;2023-12-29T06:39:28;6.00;95.20
1678;DHT22;6034;46.864;15.216;2023-12-29T06:41:55;6.00;95.30
1678;DHT22;6034;46.864;15.216;2023-12-29T06:44:23;6.00;95.20
1678;DHT22;6034;46.864;15.216;2023-12-29T06:46:50;5.90;96.00
1678;DHT22;6034;46.864;15.216;2023-12-29T06:49:18;6.00;95.90
1678;DHT22;6034;46.864;15.216;2023-12-29T06:51:45;5.90;95.20
1678;DHT22;6034;46.864;15.216;2023-12-29T06:54:14;5.80;95.00
1678;DHT22;6034;46.864;15.216;2023-12-29T06:56:42;5.90;94.80
1678;DHT22;6034;46.864;15.216;2023-12-29T06:59:09;5.90;95.20
1678;DHT22;6034;46.864;15.216;2023-12-29T07:01:39;5.90;95.20
1678;DHT22;6034;46.864;15.216;2023-12-29T07:04:07;5.90;95.30
1678;DHT22;6034;46.864;15.216;2023-12-29T07:06:36;5.90;95.50
1678;DHT22;6034;46.864;15.216;2023-12-29T07:09:03;6.00;95.50
1678;DHT22;6034;46.864;15.216;2023-12-29T07:11:34;6.00;95.20
1678;DHT22;6034;46.864;15.216;2023-12-29T07:14:02;6.00;95.40
1678;DHT22;6034;46.864;15.216;2023-12-29T07:16:30;6.10;95.60
1678;DHT22;6034;46.864;15.216;2023-12-29T07:18:57;6.20;95.30
1678;DHT22;6034;46.864;15.216;2023-12-29T07:21:25;6.20;95.30
1678;DHT22;6034;46.864;15.216;2023-12-29T07:23:52;6.00;95.10
1678;DHT22;6034;46.864;15.216;2023-12-29T07:26:20;6.10;95.20
1678;DHT22;6034;46.864;15.216;2023-12-29T07:28:49;6.00;95.20
1678;DHT22;6034;46.864;15.216;2023-12-29T07:31:20;6.10;95.80
1678;DHT22;6034;46.864;15.216;2023-12-29T07:33:49;6.20;95.60
1678;DHT22;6034;46.864;15.216;2023-12-29T07:36:17;6.20;95.80
1678;DHT22;6034;46.864;15.216;2023-12-29T07:38:44;6.30;95.80
1678;DHT22;6034;46.864;15.216;2023-12-29T07:41:12;6.40;95.90
1678;DHT22;6034;46.864;15.216;2023-12-29T07:43:40;6.50;96.00
1678;DHT22;6034;46.864;15.216;2023-12-29T07:46:09;6.50;96.10
1678;DHT22;6034;46.864;15.216;2023-12-29T07:48:37;6.60;96.30
1678;DHT22;6034;46.864;15.216;2023-12-29T07:51:06;6.60;96.50
1678;DHT22;6034;46.864;15.216;2023-12-29T07:53:34;6.70;96.40
1678;DHT22;6034;46.864;15.216;2023-12-29T07:56:02;6.70;96.50
1678;DHT22;6034;46.864;15.216;2023-12-29T07:58:32;6.80;96.30
1678;DHT22;6034;46.864;15.216;2023-12-29T08:01:00;7.00;96.30
1678;DHT22;6034;46.864;15.216;2023-12-29T08:03:33;6.90;96.00
1678;DHT22;6034;46.864;15.216;2023-12-29T08:06:03;6.80;95.70
1678;DHT22;6034;46.864;15.216;2023-12-29T08:08:32;6.90;96.00
1678;DHT22;6034;46.864;15.216;2023-12-29T08:11:00;6.70;95.60
1678;DHT22;6034;46.864;15.216;2023-12-29T08:13:29;6.70;95.20
1678;DHT22;6034;46.864;15.216;2023-12-29T08:16:00;6.70;95.10
1678;DHT22;6034;46.864;15.216;2023-12-29T08:18:29;6.80;95.20
1678;DHT22;6034;46.864;15.216;2023-12-29T08:20:58;6.90;95.60
1678;DHT22;6034;46.864;15.216;2023-12-29T08:23:29;7.10;95.50
1678;DHT22;6034;46.864;15.216;2023-12-29T08:25:58;7.20;95.50
1678;DHT22;6034;46.864;15.216;2023-12-29T08:28:27;7.30;95.90
1678;DHT22;6034;46.864;15.216;2023-12-29T08:30:57;7.30;96.50
1678;DHT22;6034;46.864;15.216;2023-12-29T08:33:29;7.40;96.90
1678;DHT22;6034;46.864;15.216;2023-12-29T08:35:58;7.50;97.00
1678;DHT22;6034;46.864;15.216;2023-12-29T08:38:27;7.50;96.50
1678;DHT22;6034;46.864;15.216;2023-12-29T08:40:57;7.60;96.60
1678;DHT22;6034;46.864;15.216;2023-12-29T08:43:28;7.70;96.60
1678;DHT22;6034;46.864;15.216;2023-12-29T08:45:58;7.80;96.30
1678;DHT22;6034;46.864;15.216;2023-12-29T08:48:30;7.90;96.20
1678;DHT22;6034;46.864;15.216;2023-12-29T08:51:00;7.90;96.10
1678;DHT22;6034;46.864;15.216;2023-12-29T08:53:27;8.00;96.30
1678;DHT22;6034;46.864;15.216;2023-12-29T08:55:58;8.10;96.60
1678;DHT22;6034;46.864;15.216;2023-12-29T08:58:29;8.20;96.50
1678;DHT22;6034;46.864;15.216;2023-12-29T09:00:57;8.20;96.10
1678;DHT22;6034;46.864;15.216;2023-12-29T09:03:25;8.20;96.70
1678;DHT22;6034;46.864;15.216;2023-12-29T09:05:57;8.40;95.90
1678;DHT22;6034;46.864;15.216;2023-12-29T09:08:25;8.40;95.90
1678;DHT22;6034;46.864;15.216;2023-12-29T09:10:53;8.50;95.60
1678;DHT22;6034;46.864;15.216;2023-12-29T09:13:20;8.60;96.00
1678;DHT22;6034;46.864;15.216;2023-12-29T09:15:51;8.50;95.70
1678;DHT22;6034;46.864;15.216;2023-12-29T09:18:18;8.60;95.50
1678;DHT22;6034;46.864;15.216;2023-12-29T09:20:46;8.60;95.30
1678;DHT22;6034;46.864;15.216;2023-12-29T09:23:15;8.50;95.60
1678;DHT22;6034;46.864;15.216;2023-12-29T09:25:42;8.60;97.10
1678;DHT22;6034;46.864;15.216;2023-12-29T09:28:09;8.70;97.00
1678;DHT22;6034;46.864;15.216;2023-12-29T09:30:44;8.70;96.60
1678;DHT22;6034;46.864;15.216;2023-12-29T09:33:11;8.70;96.50
1678;DHT22;6034;46.864;15.216;2023-12-29T09:35:39;8.80;96.00
1678;DHT22;6034;46.864;15.216;2023-12-29T09:38:06;8.60;93.90
1678;DHT22;6034;46.864;15.216;2023-12-29T09:40:37;8.70;95.30
1678;DHT22;6034;46.864;15.216;2023-12-29T09:43:04;8.50;95.80
1678;DHT22;6034;46.864;15.216;2023-12-29T09:45:33;8.20;95.00
1678;DHT22;6034;46.864;15.216;2023-12-29T09:48:01;8.50;94.70
1678;DHT22;6034;46.864;15.216;2023-12-29T09:50:29;8.60;95.00
1678;DHT22;6034;46.864;15.216;2023-12-29T09:52:58;8.70;94.50
1678;DHT22;6034;46.864;15.216;2023-12-29T09:55:29;8.80;93.90
1678;DHT22;6034;46.864;15.216;2023-12-29T09:57:59;8.80;93.10
1678;DHT22;6034;46.864;15.216;2023-12-29T10:00:27;8.90;94.00
1678;DHT22;6034;46.864;15.216;2023-12-29T10:02:55;8.70;94.10
1678;DHT22;6034;46.864;15.216;2023-12-29T10:05:23;9.00;95.00
1678;DHT22;6034;46.864;15.216;2023-12-29T10:07:52;8.90;94.60
1678;DHT22;6034;46.864;15.216;2023-12-29T10:10:20;8.80;95.50
1678;DHT22;6034;46.864;15.216;2023-12-29T10:12:51;8.70;95.30
1678;DHT22;6034;46.864;15.216;2023-12-29T10:15:27;8.70;94.90
1678;DHT22;6034;46.864;15.216;2023-12-29T10:18:07;9.00;94.40
1678;DHT22;6034;46.864;15.216;2023-12-29T10:20:42;8.90;93.80
1678;DHT22;6034;46.864;15.216;2023-12-29T10:23:16;9.00;94.40
1678;DHT22;6034;46.864;15.216;2023-12-29T10:25:44;9.00;93.50
1678;DHT22;6034;46.864;15.216;2023-12-29T10:28:13;9.10;94.00
1678;DHT22;6034;46.864;15.216;2023-12-29T10:30:42;9.10;94.30
1678;DHT22;6034;46.864;15.216;2023-12-29T10:33:09;9.20;94.70
1678;DHT22;6034;46.864;15.216;2023-12-29T10:35:36;9.30;94.30
1678;DHT22;6034;46.864;15.216;2023-12-29T10:38:11;9.30;93.40
1678;DHT22;6034;46.864;15.216;2023-12-29T10:40:40;9.40;93.30
1678;DHT22;6034;46.864;15.216;2023-12-29T10:43:08;9.50;93.40
1678;DHT22;6034;46.864;15.216;2023-12-29T10:45:36;9.60;93.00
1678;DHT22;6034;46.864;15.216;2023-12-29T10:48:06;9.60;92.00
1678;DHT22;6034;46.864;15.216;2023-12-29T10:50:43;9.60;92.50
1678;DHT22;6034;46.864;15.216;2023-12-29T10:53:12;9.50;93.00
1678;DHT22;6034;46.864;15.216;2023-12-29T10:55:40;9.40;92.60
1678;DHT22;6034;46.864;15.216;2023-12-29T10:58:08;9.50;93.20
1678;DHT22;6034;46.864;15.216;2023-12-29T11:00:36;9.60;93.50
1678;DHT22;6034;46.864;15.216;2023-12-29T11:03:06;9.70;93.20
1678;DHT22;6034;46.864;15.216;2023-12-29T11:05:37;9.80;92.60
1678;DHT22;6034;46.864;15.216;2023-12-29T11:08:15;9.70;92.40
1678;DHT22;6034;46.864;15.216;2023-12-29T11:10:44;9.80;92.50
1678;DHT22;6034;46.864;15.216;2023-12-29T11:13:12;9.90;92.90
1678;DHT22;6034;46.864;15.216;2023-12-29T11:15:43;10.00;92.70
1678;DHT22;6034;46.864;15.216;2023-12-29T11:18:14;10.00;92.50
1678;DHT22;6034;46.864;15.216;2023-12-29T11:20:43;10.00;91.30
1678;DHT22;6034;46.864;15.216;2023-12-29T11:23:11;10.00;91.80
1678;DHT22;6034;46.864;15.216;2023-12-29T11:25:39;9.90;91.60
1678;DHT22;6034;46.864;15.216;2023-12-29T11:28:09;9.90;92.10
1678;DHT22;6034;46.864;15.216;2023-12-29T11:30:38;9.90;92.60
1678;DHT22;6034;46.864;15.216;2023-12-29T11:33:10;9.80;93.00
1678;DHT22;6034;46.864;15.216;2023-12-29T11:35:44;9.80;93.60
1678;DHT22;6034;46.864;15.216;2023-12-29T11:38:23;9.90;93.90
1678;DHT22;6034;46.864;15.216;2023-12-29T11:40:59;10.00;93.50
1678;DHT22;6034;46.864;15.216;2023-12-29T11:43:29;9.90;94.30
1678;DHT22;6034;46.864;15.216;2023-12-29T11:45:56;9.90;94.60
1678;DHT22;6034;46.864;15.216;2023-12-29T11:48:56;9.90;94.50
1678;DHT22;6034;46.864;15.216;2023-12-29T11:51:33;10.00;93.90
1678;DHT22;6034;46.864;15.216;2023-12-29T11:54:02;10.00;94.10
1678;DHT22;6034;46.864;15.216;2023-12-29T11:56:37;10.10;94.10
1678;DHT22;6034;46.864;15.216;2023-12-29T11:59:13;10.10;93.80
1678;DHT22;6034;46.864;15.216;2023-12-29T12:01:40;10.10;93.10
1678;DHT22;6034;46.864;15.216;2023-12-29T12:04:38;10.20;93.40
1678;DHT22;6034;46.864;15.216;2023-12-29T12:07:12;10.10;91.70
1678;DHT22;6034;46.864;15.216;2023-12-29T12:09:40;10.00;91.20
1678;DHT22;6034;46.864;15.216;2023-12-29T12:12:09;10.10;91.90
1678;DHT22;6034;46.864;15.216;2023-12-29T12:14:44;10.30;91.70
1678;DHT22;6034;46.864;15.216;2023-12-29T12:17:11;10.30;92.20
1678;DHT22;6034;46.864;15.216;2023-12-29T12:19:39;10.20;91.40
1678;DHT22;6034;46.864;15.216;2023-12-29T12:22:11;10.40;92.30
1678;DHT22;6034;46.864;15.216;2023-12-29T12:24:41;10.30;92.20
1678;DHT22;6034;46.864;15.216;2023-12-29T12:27:10;10.30;92.20
1678;DHT22;6034;46.864;15.216;2023-12-29T12:29:38;10.30;92.10
1678;DHT22;6034;46.864;15.216;2023-12-29T12:32:07;10.40;90.80
1678;DHT22;6034;46.864;15.216;2023-12-29T12:34:37;10.50;90.80
1678;DHT22;6034;46.864;15.216;2023-12-29T12:37:07;10.30;90.50
1678;DHT22;6034;46.864;15.216;2023-12-29T12:39:39;10.40;90.50
1678;DHT22;6034;46.864;15.216;2023-12-29T12:42:07;10.50;91.00
1678;DHT22;6034;46.864;15.216;2023-12-29T12:44:34;10.40;90.10
1678;DHT22;6034;46.864;15.216;2023-12-29T12:47:07;10.50;90.70
1678;DHT22;6034;46.864;15.216;2023-12-29T12:49:36;10.50;90.60
1678;DHT22;6034;46.864;15.216;2023-12-29T12:52:04;10.50;91.30
1678;DHT22;6034;46.864;15.216;2023-12-29T12:54:33;10.50;90.90
1678;DHT22;6034;46.864;15.216;2023-12-29T12:57:00;10.60;91.10
1678;DHT22;6034;46.864;15.216;2023-12-29T12:59:28;10.60;90.60
1678;DHT22;6034;46.864;15.216;2023-12-29T13:01:56;10.50;90.20
1678;DHT22;6034;46.864;15.216;2023-12-29T13:04:23;10.50;90.50
1678;DHT22;6034;46.864;15.216;2023-12-29T13:06:53;10.60;90.60
1678;DHT22;6034;46.864;15.216;2023-12-29T13:09:21;10.60;90.00
1678;DHT22;6034;46.864;15.216;2023-12-29T13:11:56;10.60;90.30
1678;DHT22;6034;46.864;15.216;2023-12-29T13:14:33;10.50;90.50
1678;DHT22;6034;46.864;15.216;2023-12-29T13:17:06;10.50;90.20
1678;DHT22;6034;46.864;15.216;2023-12-29T13:19:33;10.60;90.80
1678;DHT22;6034;46.864;15.216;2023-12-29T13:22:01;10.60;90.90
1678;DHT22;6034;46.864;15.216;2023-12-29T13:24:30;10.80;91.30
1678;DHT22;6034;46.864;15.216;2023-12-29T13:27:05;10.70;90.80
1678;DHT22;6034;46.864;15.216;2023-12-29T13:29:35;10.60;91.20
1678;DHT22;6034;46.864;15.216;2023-12-29T13:32:07;10.70;91.50
1678;DHT22;6034;46.864;15.216;2023-12-29T13:34:40;10.80;91.70
1678;DHT22;6034;46.864;15.216;2023-12-29T13:37:18;10.80;91.40
1678;DHT22;6034;46.864;15.216;2023-12-29T13:39:52;10.80;91.40
1678;DHT22;6034;46.864;15.216;2023-12-29T13:42:23;10.80;91.60
1678;DHT22;6034;46.864;15.216;2023-12-29T13:44:52;10.80;91.90
1678;DHT22;6034;46.864;15.216;2023-12-29T13:47:21;10.80;91.30
1678;DHT22;6034;46.864;15.216;2023-12-29T13:49:50;10.80;91.00
1678;DHT22;6034;46.864;15.216;2023-12-29T13:52:19;10.70;90.50
1678;DHT22;6034;46.864;15.216;2023-12-29T13:54:47;10.70;91.50
1678;DHT22;6034;46.864;15.216;2023-12-29T13:57:14;10.80;91.60
1678;DHT22;6034;46.864;15.216;2023-12-29T13:59:43;10.80;91.70
1678;DHT22;6034;46.864;15.216;2023-12-29T14:02:23;10.70;91.30
1678;DHT22;6034;46.864;15.216;2023-12-29T14:05:18;10.80;91.30
1678;DHT22;6034;46.864;15.216;2023-12-29T14:07:51;10.90;91.40
1678;DHT22;6034;46.864;15.216;2023-12-29T14:10:19;10.90;91.20
1678;DHT22;6034;46.864;15.216;2023-12-29T14:12:47;10.80;90.50
1678;DHT22;6034;46.864;15.216;2023-12-29T14:15:15;10.70;90.80
1678;DHT22;6034;46.864;15.216;2023-12-29T14:17:43;10.80;91.20
1678;DHT22;6034;46.864;15.216;2023-12-29T14:20:11;10.80;91.00
1678;DHT22;6034;46.864;15.216;2023-12-29T14:22:38;10.80;90.90
1678;DHT22;6034;46.864;15.216;2023-12-29T14:25:06;10.80;91.00
1678;DHT22;6034;46.864;15.216;2023-12-29T14:27:35;10.80;91.10
1678;DHT22;6034;46.864;15.216;2023-12-29T14:30:19;10.70;91.00
1678;DHT22;6034;46.864;15.216;2023-12-29T14:32:46;10.70;90.90
1678;DHT22;6034;46.864;15.216;2023-12-29T14:35:14;10.70;91.30
1678;DHT22;6034;46.864;15.216;2023-12-29T14:37:41;10.60;91.10
1678;DHT22;6034;46.864;15.216;2023-12-29T14:40:11;10.60;91.00
1678;DHT22;6034;46.864;15.216;2023-12-29T14:42:39;10.40;91.30
1678;DHT22;6034;46.864;15.216;2023-12-29T14:45:07;10.40;91.90
1678;DHT22;6034;46.864;15.216;2023-12-29T14:47:36;10.30;92.00
1678;DHT22;6034;46.864;15.216;2023-12-29T14:50:05;10.20;91.50
1678;DHT22;6034;46.864;15.216;2023-12-29T14:52:33;10.30;91.90
1678;DHT22;6034;46.864;15.216;2023-12-29T14:55:00;10.40;91.80
1678;DHT22;6034;46.864;15.216;2023-12-29T14:57:27;10.40;91.10
1678;DHT22;6034;46.864;15.216;2023-12-29T14:59:55;10.10;91.00
1678;DHT22;6034;46.864;15.216;2023-12-29T15:02:22;9.90;91.80
1678;DHT22;6034;46.864;15.216;2023-12-29T15:04:51;10.00;92.10
1678;DHT22;6034;46.864;15.216;2023-12-29T15:07:18;10.10;91.40
1678;DHT22;6034;46.864;15.216;2023-12-29T15:09:54;10.00;91.40
1678;DHT22;6034;46.864;15.216;2023-12-29T15:12:21;10.00;92.10
1678;DHT22;6034;46.864;15.216;2023-12-29T15:14:48;10.00;91.90
1678;DHT22;6034;46.864;15.216;2023-12-29T15:17:16;10.00;92.00
1678;DHT22;6034;46.864;15.216;2023-12-29T15:19:43;10.00;91.90
1678;DHT22;6034;46.864;15.216;2023-12-29T15:22:12;10.00;92.00
1678;DHT22;6034;46.864;15.216;2023-12-29T15:24:39;9.90;92.50
1678;DHT22;6034;46.864;15.216;2023-12-29T15:27:07;9.80;92.70
1678;DHT22;6034;46.864;15.216;2023-12-29T15:29:34;9.60;92.60
1678;DHT22;6034;46.864;15.216;2023-12-29T15:32:01;9.70;93.20
1678;DHT22;6034;46.864;15.216;2023-12-29T15:34:29;9.70;93.30
1678;DHT22;6034;46.864;15.216;2023-12-29T15:36:56;9.70;93.20
1678;DHT22;6034;46.864;15.216;2023-12-29T15:39:25;9.80;93.30
1678;DHT22;6034;46.864;15.216;2023-12-29T15:41:52;9.80;93.40
1678;DHT22;6034;46.864;15.216;2023-12-29T15:44:20;9.70;93.40
1678;DHT22;6034;46.864;15.216;2023-12-29T15:46:48;9.60;93.40
1678;DHT22;6034;46.864;15.216;2023-12-29T15:49:15;9.60;93.90
1678;DHT22;6034;46.864;15.216;2023-12-29T15:51:42;9.40;93.40
1678;DHT22;6034;46.864;15.216;2023-12-29T15:54:10;9.50;93.60
1678;DHT22;6034;46.864;15.216;2023-12-29T15:56:38;9.60;93.50
1678;DHT22;6034;46.864;15.216;2023-12-29T15:59:06;9.60;93.40
1678;DHT22;6034;46.864;15.216;2023-12-29T16:01:33;9.60;93.20
1678;DHT22;6034;46.864;15.216;2023-12-29T16:04:01;9.50;93.50
1678;DHT22;6034;46.864;15.216;2023-12-29T16:06:28;9.40;93.80
1678;DHT22;6034;46.864;15.216;2023-12-29T16:08:56;9.40;93.90
1678;DHT22;6034;46.864;15.216;2023-12-29T16:11:25;9.40;94.20
1678;DHT22;6034;46.864;15.216;2023-12-29T16:13:55;9.40;94.10
1678;DHT22;6034;46.864;15.216;2023-12-29T16:16:23;9.20;94.00
1678;DHT22;6034;46.864;15.216;2023-12-29T16:18:55;9.10;94.10
1678;DHT22;6034;46.864;15.216;2023-12-29T16:21:23;9.10;94.30
1678;DHT22;6034;46.864;15.216;2023-12-29T16:23:51;9.10;94.10
1678;DHT22;6034;46.864;15.216;2023-12-29T16:26:19;8.90;94.50
1678;DHT22;6034;46.864;15.216;2023-12-29T16:28:46;8.80;94.60
1678;DHT22;6034;46.864;15.216;2023-12-29T16:31:15;8.80;94.60
1678;DHT22;6034;46.864;15.216;2023-12-29T16:33:42;8.80;95.10
1678;DHT22;6034;46.864;15.216;2023-12-29T16:36:11;8.80;94.80
1678;DHT22;6034;46.864;15.216;2023-12-29T16:38:46;8.90;94.90
1678;DHT22;6034;46.864;15.216;2023-12-29T16:41:14;8.90;94.80
1678;DHT22;6034;46.864;15.216;2023-12-29T16:43:42;8.90;94.80
1678;DHT22;6034;46.864;15.216;2023-12-29T16:46:10;8.90;94.90
1678;DHT22;6034;46.864;15.216;2023-12-29T16:48:39;8.90;94.70
1678;DHT22;6034;46.864;15.216;2023-12-29T16:51:08;8.90;94.90
1678;DHT22;6034;46.864;15.216;2023-12-29T16:53:37;8.90;94.90
1678;DHT22;6034;46.864;15.216;2023-12-29T16:56:05;8.90;94.80
1678;DHT22;6034;46.864;15.216;2023-12-29T16:58:36;8.90;95.00
1678;DHT22;6034;46.864;15.216;2023-12-29T17:01:09;8.90;95.00
1678;DHT22;6034;46.864;15.216;2023-12-29T17:03:37;8.80;95.00
1678;DHT22;6034;46.864;15.216;2023-12-29T17:06:07;8.90;94.90
1678;DHT22;6034;46.864;15.216;2023-12-29T17:08:34;8.60;95.00
1678;DHT22;6034;46.864;15.216;2023-12-29T17:11:02;8.50;95.30
1678;DHT22;6034;46.864;15.216;2023-12-29T17:13:31;8.60;95.30
1678;DHT22;6034;46.864;15.216;2023-12-29T17:16:02;8.60;95.20
1678;DHT22;6034;46.864;15.216;2023-12-29T17:18:32;8.50;95.10
1678;DHT22;6034;46.864;15.216;2023-12-29T17:20:59;8.30;95.10
1678;DHT22;6034;46.864;15.216;2023-12-29T17:23:28;8.30;95.50
1678;DHT22;6034;46.864;15.216;2023-12-29T17:25:55;8.40;95.70
1678;DHT22;6034;46.864;15.216;2023-12-29T17:28:23;8.40;95.50
1678;DHT22;6034;46.864;15.216;2023-12-29T17:30:50;8.30;95.50
1678;DHT22;6034;46.864;15.216;2023-12-29T17:33:17;8.40;95.50
1678;DHT22;6034;46.864;15.216;2023-12-29T17:35:45;8.50;95.50
1678;DHT22;6034;46.864;15.216;2023-12-29T17:38:12;8.60;95.30
1678;DHT22;6034;46.864;15.216;2023-12-29T17:40:41;8.70;95.20
1678;DHT22;6034;46.864;15.216;2023-12-29T17:43:08;8.50;95.10
1678;DHT22;6034;46.864;15.216;2023-12-29T17:45:36;8.50;95.50
1678;DHT22;6034;46.864;15.216;2023-12-29T17:48:03;8.50;95.00
1678;DHT22;6034;46.864;15.216;2023-12-29T17:50:31;8.30;95.50
1678;DHT22;6034;46.864;15.216;2023-12-29T17:52:59;8.40;95.60
1678;DHT22;6034;46.864;15.216;2023-12-29T17:55:26;8.40;95.50
1678;DHT22;6034;46.864;15.216;2023-12-29T17:57:55;8.40;95.60
1678;DHT22;6034;46.864;15.216;2023-12-29T18:00:22;8.50;95.70
1678;DHT22;6034;46.864;15.216;2023-12-29T18:02:49;8.40;95.50
1678;DHT22;6034;46.864;15.216;2023-12-29T18:05:17;8.50;95.70
1678;DHT22;6034;46.864;15.216;2023-12-29T18:07:44;8.50;95.50
1678;DHT22;6034;46.864;15.216;2023-12-29T18:10:11;8.40;95.60
1678;DHT22;6034;46.864;15.216;2023-12-29T18:12:39;8.40;95.70
1678;DHT22;6034;46.864;15.216;2023-12-29T18:15:08;8.40;95.60
1678;DHT22;6034;46.864;15.216;2023-12-29T18:17:39;8.30;95.40
1678;DHT22;6034;46.864;15.216;2023-12-29T18:20:07;8.30;95.30
1678;DHT22;6034;46.864;15.216;2023-12-29T18:22:38;8.20;95.10
1678;DHT22;6034;46.864;15.216;2023-12-29T18:25:06;8.20;95.00
1678;DHT22;6034;46.864;15.216;2023-12-29T18:27:35;8.10;95.10
1678;DHT22;6034;46.864;15.216;2023-12-29T18:30:03;8.10;95.10
1678;DHT22;6034;46.864;15.216;2023-12-29T18:32:32;8.10;95.20
1678;DHT22;6034;46.864;15.216;2023-12-29T18:35:00;8.10;95.00
1678;DHT22;6034;46.864;15.216;2023-12-29T18:37:30;8.10;94.70
1678;DHT22;6034;46.864;15.216;2023-12-29T18:39:57;8.20;95.10
1678;DHT22;6034;46.864;15.216;2023-12-29T18:42:25;8.20;95.10
1678;DHT22;6034;46.864;15.216;2023-12-29T18:44:52;8.30;95.10
1678;DHT22;6034;46.864;15.216;2023-12-29T18:47:19;8.30;94.70
1678;DHT22;6034;46.864;15.216;2023-12-29T18:49:48;8.20;94.70
1678;DHT22;6034;46.864;15.216;2023-12-29T18:52:16;8.30;94.60
1678;DHT22;6034;46.864;15.216;2023-12-29T18:54:43;8.30;94.50
1678;DHT22;6034;46.864;15.216;2023-12-29T18:57:15;8.10;94.50
1678;DHT22;6034;46.864;15.216;2023-12-29T18:59:43;8.00;94.70
1678;DHT22;6034;46.864;15.216;2023-12-29T19:02:13;8.00;95.20
1678;DHT22;6034;46.864;15.216;2023-12-29T19:04:42;8.10;94.80
1678;DHT22;6034;46.864;15.216;2023-12-29T19:07:12;8.20;94.90
1678;DHT22;6034;46.864;15.216;2023-12-29T19:09:43;9.30;99.90
1678;DHT22;6034;46.864;15.216;2023-12-29T19:12:12;10.20;99.90
1678;DHT22;6034;46.864;15.216;2023-12-29T19:14:41;10.60;99.90
1678;DHT22;6034;46.864;15.216;2023-12-29T19:17:08;10.90;99.90
1678;DHT22;6034;46.864;15.216;2023-12-29T19:19:35;11.00;99.90
1678;DHT22;6034;46.864;15.216;2023-12-29T19:22:03;11.20;99.90
1678;DHT22;6034;46.864;15.216;2023-12-29T19:24:32;11.20;99.90
1678;DHT22;6034;46.864;15.216;2023-12-29T19:27:01;11.20;99.90
1678;DHT22;6034;46.864;15.216;2023-12-29T19:29:29;10.80;99.90
1678;DHT22;6034;46.864;15.216;2023-12-29T19:31:56;11.00;99.90
1678;DHT22;6034;46.864;15.216;2023-12-29T19:34:24;11.00;99.90
1678;DHT22;6034;46.864;15.216;2023-12-29T19:36:51;11.20;99.90
1678;DHT22;6034;46.864;15.216;2023-12-29T19:39:19;11.10;99.90
1678;DHT22;6034;46.864;15.216;2023-12-29T19:41:48;10.40;99.20
1678;DHT22;6034;46.864;15.216;2023-12-29T19:44:15;9.80;99.30
1678;DHT22;6034;46.864;15.216;2023-12-29T19:46:43;9.60;99.30
1678;DHT22;6034;46.864;15.216;2023-12-29T19:49:10;9.50;99.40
1678;DHT22;6034;46.864;15.216;2023-12-29T19:51:37;9.50;99.70
1678;DHT22;6034;46.864;15.216;2023-12-29T19:54:05;9.30;99.90
1678;DHT22;6034;46.864;15.216;2023-12-29T19:56:32;8.90;99.80
1678;DHT22;6034;46.864;15.216;2023-12-29T19:59:01;8.80;99.90
1678;DHT22;6034;46.864;15.216;2023-12-29T20:01:29;8.60;99.90
1678;DHT22;6034;46.864;15.216;2023-12-29T20:03:58;8.70;99.90
1678;DHT22;6034;46.864;15.216;2023-12-29T20:06:26;8.70;99.90
1678;DHT22;6034;46.864;15.216;2023-12-29T20:08:53;8.40;99.60
1678;DHT22;6034;46.864;15.216;2023-12-29T20:11:21;8.10;99.90
1678;DHT22;6034;46.864;15.216;2023-12-29T20:13:48;8.30;99.90
1678;DHT22;6034;46.864;15.216;2023-12-29T20:16:21;8.30;99.90
1678;DHT22;6034;46.864;15.216;2023-12-29T20:18:49;8.10;99.90
1678;DHT22;6034;46.864;15.216;2023-12-29T20:21:22;8.30;99.90
1678;DHT22;6034;46.864;15.216;2023-12-29T20:23:50;8.30;99.90
1678;DHT22;6034;46.864;15.216;2023-12-29T20:26:20;8.20;99.90
1678;DHT22;6034;46.864;15.216;2023-12-29T20:28:50;8.20;99.90
1678;DHT22;6034;46.864;15.216;2023-12-29T20:31:28;8.20;99.90
1678;DHT22;6034;46.864;15.216;2023-12-29T20:33:57;8.20;99.90
1678;DHT22;6034;46.864;15.216;2023-12-29T20:36:25;8.20;99.90
1678;DHT22;6034;46.864;15.216;2023-12-29T20:38:53;8.20;99.90
1678;DHT22;6034;46.864;15.216;2023-12-29T20:41:23;8.10;99.90
1678;DHT22;6034;46.864;15.216;2023-12-29T20:43:52;8.10;99.90
1678;DHT22;6034;46.864;15.216;2023-12-29T20:46:22;8.10;99.90
1678;DHT22;6034;46.864;15.216;2023-12-29T20:48:51;8.00;99.70
1678;DHT22;6034;46.864;15.216;2023-12-29T20:51:19;7.90;99.90
1678;DHT22;6034;46.864;15.216;2023-12-29T20:53:47;8.00;99.90
1678;DHT22;6034;46.864;15.216;2023-12-29T20:56:15;8.00;99.70
1678;DHT22;6034;46.864;15.216;2023-12-29T20:58:44;7.60;99.30
1678;DHT22;6034;46.864;15.216;2023-12-29T21:01:13;7.60;99.90
1678;DHT22;6034;46.864;15.216;2023-12-29T21:03:40;7.70;99.80
1678;DHT22;6034;46.864;15.216;2023-12-29T21:06:14;7.80;99.40
1678;DHT22;6034;46.864;15.216;2023-12-29T21:08:41;7.60;99.20
1678;DHT22;6034;46.864;15.216;2023-12-29T21:11:15;7.60;99.80
1678;DHT22;6034;46.864;15.216;2023-12-29T21:13:43;7.70;99.70
1678;DHT22;6034;46.864;15.216;2023-12-29T21:16:13;7.30;99.60
1678;DHT22;6034;46.864;15.216;2023-12-29T21:18:41;7.20;99.90
1678;DHT22;6034;46.864;15.216;2023-12-29T21:21:11;7.40;99.90
1678;DHT22;6034;46.864;15.216;2023-12-29T21:23:38;7.50;99.90
1678;DHT22;6034;46.864;15.216;2023-12-29T21:26:05;7.60;99.90
1678;DHT22;6034;46.864;15.216;2023-12-29T21:28:33;7.50;99.90
1678;DHT22;6034;46.864;15.216;2023-12-29T21:31:01;7.50;99.90
1678;DHT22;6034;46.864;15.216;2023-12-29T21:33:28;7.50;99.90
1678;DHT22;6034;46.864;15.216;2023-12-29T21:35:55;7.50;99.90
1678;DHT22;6034;46.864;15.216;2023-12-29T21:38:24;7.50;99.90
1678;DHT22;6034;46.864;15.216;2023-12-29T21:40:52;7.30;99.90
1678;DHT22;6034;46.864;15.216;2023-12-29T21:43:19;7.40;99.90
1678;DHT22;6034;46.864;15.216;2023-12-29T21:45:46;7.50;99.90
1678;DHT22;6034;46.864;15.216;2023-12-29T21:48:16;7.40;99.90
1678;DHT22;6034;46.864;15.216;2023-12-29T21:50:44;7.40;99.90
1678;DHT22;6034;46.864;15.216;2023-12-29T21:53:13;7.30;99.80
1678;DHT22;6034;46.864;15.216;2023-12-29T21:55:42;7.20;99.80
1678;DHT22;6034;46.864;15.216;2023-12-29T21:58:10;7.30;99.70
1678;DHT22;6034;46.864;15.216;2023-12-29T22:00:38;7.40;99.80
1678;DHT22;6034;46.864;15.216;2023-12-29T22:03:06;7.40;99.80
1678;DHT22;6034;46.864;15.216;2023-12-29T22:05:35;7.30;99.90
1678;DHT22;6034;46.864;15.216;2023-12-29T22:08:03;7.30;99.90
1678;DHT22;6034;46.864;15.216;2023-12-29T22:10:30;7.00;99.90